Aérodrome de la Montagne Noire

LFMG · Upper Garonne, Occitanie, 法国

罗盘
风向 的 风向 280° Aérodrome de la Montagne Noire 18/36
风: 3 kt, 1 beaufort


3 kt
改变
0 1.000 2.000 3.000 4.000 5.000
FEW 1.800 ft
OVC 3.900 ft
METAR LFCK 021400Z AUTO 28003KT 9999 FEW018 OVC039 06/03 Q1016 NOSIG

METAR Aérodrome de la Montagne Noire - LFMG

Aérodrome de la Montagne Noire是,法国中的小机场。 该机场有3条跑道: 18/36, 3/21 和 12/30. 该领域的国际民航组织标志是LFMG.

这份报告是针对2022年12月2日 15:00, 当地时间在Castres-Mazamet Airport进行的。

机场观察

风向为280°,速度为3 kt。

可见度为10 km 或者更多。

有几云在1.800 ft的高度 和 乌云密布在3.900 ft的高度。 破损或更高的上限为3.900 ft。

温度为6 °C,阵风为4 °C。 露点为3 °C,相对湿度为81%。 海平面上的气压为1016 hPa (QNH)。

白天

今天,太阳从08:05升起,在17:17降落。 这适用于Aérodrome de la Montagne Noire,世界夏令时可能有所不同。 当地时间与世界标准时间之间的时差为+1 小时。 当前,没有夏令时有效。

公司介绍

我们没有关于这个机场的公司信息。

体会

到Vliegles.nl去找飞行课程,跳伞和其他飞行体验。 浏览页面,了解Aérodrome de la Montagne Noire附近所有可用的活动。 你也可以使用搜索功能来寻找你所在地附近的特定飞行课程、跳伞或其他飞行体验。

跑道

Id 标题 侧风 逆风 侧风 %
18/36 004°-184° 3 kt 99 %
3/21 034°-214° 3 kt 1 kt 91 %
12/30 121°-301° 1 kt 3 kt 36 %

逆风成分最大的方向会被突出显示,并用于横风计算。 这并不一定意味着这个方向在使用。

乌云

1.800 ft FEW 几云
3.900 ft OVC 乌云密布

温度 & 天气

温度 6 °C
露点 3 °C
相对湿度 81%
风寒 4 °C
Kp-index 2 (0-9)

白天

日出
08:05
中午
12:40
日落
17:15 (2:01)

小工具

你想在你的网站上有一个关于Aérodrome de la Montagne Noire的当前航空天气(METAR)的小部件吗?

显示HTML代码

我们和第三方通过cookies跟踪您在我们网站上的互联网行为。如果你继续,我们认为你同意我们的饼干政策